Time;durP1;ratioP1;P1;durP2;ratioP2;P2;SDS_P1;SDS_P2;PMS_P1;PMS_P2;Temp;Humidity;BMP_temperature;BMP_pressure;BME280_temperature;BME280_humidity;BME280_pressure;Samples;Min_cycle;Max_cycle;Signal;HPM_P1;HPM_P2
2021/01/11 00:00:34;;;;;;;12.73;7.67;;;;;;;;;;4807599;29;20223;-80
2021/01/11 00:03:02;;;;;;;13.20;8.43;;;;;;;;;;4811010;29;20240;-80
2021/01/11 00:05:30;;;;;;;14.00;8.17;;;;;;;;;;4794482;29;20214;-80
2021/01/11 00:07:58;;;;;;;13.40;8.37;;;;;;;;;;4796206;29;20219;-79
2021/01/11 00:10:25;;;;;;;13.73;8.30;;;;;;;;;;4795425;29;20698;-80
2021/01/11 00:12:53;;;;;;;12.93;8.40;;;;;;;;;;4803821;29;20239;-80
2021/01/11 00:15:21;;;;;;;14.40;8.07;;;;;;;;;;4799460;29;20218;-79
2021/01/11 00:17:50;;;;;;;14.53;8.73;;;;;;;;;;4801221;29;20215;-80
2021/01/11 00:20:18;;;;;;;13.73;8.27;;;;;;;;;;4816323;29;20476;-81
2021/01/11 00:22:46;;;;;;;14.77;8.53;;;;;;;;;;4805468;29;20244;-80
2021/01/11 00:25:14;;;;;;;14.97;8.30;;;;;;;;;;4815289;29;20575;-80
2021/01/11 00:27:43;;;;;;;15.00;8.77;;;;;;;;;;4809387;29;20227;-80
2021/01/11 00:30:11;;;;;;;14.20;9.10;;;;;;;;;;4792399;29;20221;-80
2021/01/11 00:32:40;;;;;;;14.20;8.67;;;;;;;;;;4799009;29;20239;-80
2021/01/11 00:35:10;;;;;;;13.97;8.67;;;;;;;;;;4808170;29;20222;-80
2021/01/11 00:37:38;;;;;;;12.97;8.23;;;;;;;;;;4815894;29;20207;-80
2021/01/11 00:40:08;;;;;;;13.10;7.70;;;;;;;;;;4815534;29;20239;-80
2021/01/11 00:42:37;;;;;;;15.27;9.00;;;;;;;;;;4814124;29;20228;-80
2021/01/11 00:45:09;;;;;;;14.83;8.33;;;;;;;;;;4816429;29;20213;-80
2021/01/11 00:47:38;;;;;;;13.70;8.23;;;;;;;;;;4813943;29;20220;-80
2021/01/11 00:50:08;;;;;;;13.37;8.13;;;;;;;;;;4811823;29;20222;-80
2021/01/11 00:52:38;;;;;;;12.03;7.80;;;;;;;;;;4790701;29;20243;-80
2021/01/11 00:55:10;;;;;;;15.67;8.03;;;;;;;;;;4803652;29;20592;-79
2021/01/11 00:57:43;;;;;;;13.83;8.23;;;;;;;;;;4803424;29;20677;-81
2021/01/11 01:00:19;;;;;;;15.63;8.83;;;;;;;;;;4793030;29;20238;-80
2021/01/11 01:02:54;;;;;;;14.43;8.07;;;;;;;;;;4787756;29;20245;-80
2021/01/11 01:05:22;;;;;;;14.33;7.93;;;;;;;;;;4790949;29;20595;-80
2021/01/11 01:07:51;;;;;;;12.97;8.63;;;;;;;;;;4803898;29;20703;-79
2021/01/11 01:10:19;;;;;;;14.63;8.33;;;;;;;;;;4793693;29;20711;-79
2021/01/11 01:12:47;;;;;;;13.70;8.80;;;;;;;;;;4814607;29;20238;-79
2021/01/11 01:15:15;;;;;;;13.30;8.17;;;;;;;;;;4799296;29;20218;-79
2021/01/11 01:17:43;;;;;;;14.00;8.27;;;;;;;;;;4808812;29;20215;-80
2021/01/11 01:20:15;;;;;;;12.13;8.33;;;;;;;;;;4789240;29;20254;-79
2021/01/11 01:22:44;;;;;;;14.40;8.40;;;;;;;;;;4789959;29;20576;-80
2021/01/11 01:25:14;;;;;;;15.33;8.67;;;;;;;;;;4787975;29;20212;-80
2021/01/11 01:27:42;;;;;;;14.87;8.40;;;;;;;;;;4788418;29;20208;-79
2021/01/11 01:30:11;;;;;;;15.00;9.67;;;;;;;;;;4802953;29;20211;-80
2021/01/11 01:32:39;;;;;;;14.87;9.20;;;;;;;;;;4805603;29;20241;-80
2021/01/11 01:35:11;;;;;;;14.33;8.40;;;;;;;;;;4800967;29;20199;-79
2021/01/11 01:37:40;;;;;;;12.53;8.07;;;;;;;;;;4815328;29;20217;-80
2021/01/11 01:40:10;;;;;;;13.47;8.70;;;;;;;;;;4813735;29;20236;-80
2021/01/11 01:42:39;;;;;;;14.57;8.70;;;;;;;;;;4795413;29;20218;-80
2021/01/11 01:45:08;;;;;;;12.70;7.87;;;;;;;;;;4824292;29;20208;-80
2021/01/11 01:47:36;;;;;;;15.20;8.77;;;;;;;;;;4825659;29;20204;-79
2021/01/11 01:50:07;;;;;;;15.53;9.00;;;;;;;;;;4804408;29;20212;-80
2021/01/11 01:52:37;;;;;;;14.03;8.20;;;;;;;;;;4801866;29;20229;-80
2021/01/11 01:55:06;;;;;;;14.63;7.90;;;;;;;;;;4805913;29;20228;-80
2021/01/11 01:57:33;;;;;;;12.47;7.57;;;;;;;;;;4788026;29;20216;-80
2021/01/11 02:00:05;;;;;;;15.00;8.90;;;;;;;;;;4802065;29;20223;-79
2021/01/11 02:02:40;;;;;;;13.83;8.43;;;;;;;;;;4788253;29;20239;-80
2021/01/11 02:05:09;;;;;;;15.90;8.27;;;;;;;;;;4802762;29;20222;-81
2021/01/11 02:07:43;;;;;;;13.87;8.30;;;;;;;;;;4790329;29;20231;-80
2021/01/11 02:10:20;;;;;;;12.27;7.07;;;;;;;;;;4789963;29;20219;-79
2021/01/11 02:13:02;;;;;;;14.23;8.50;;;;;;;;;;4814371;29;20237;-80
2021/01/11 02:15:36;;;;;;;13.83;8.13;;;;;;;;;;4801440;29;20227;-80
2021/01/11 02:18:08;;;;;;;12.50;7.80;;;;;;;;;;4802528;29;20231;-79
2021/01/11 02:21:09;;;;;;;13.13;9.10;;;;;;;;;;4794259;29;20235;-79
2021/01/11 02:24:27;;;;;;;13.97;8.57;;;;;;;;;;4800699;29;20238;-79
2021/01/11 02:27:02;;;;;;;12.67;8.27;;;;;;;;;;4785567;29;20226;-79
2021/01/11 02:29:40;;;;;;;14.67;9.30;;;;;;;;;;4787492;29;20218;-79
2021/01/11 02:32:09;;;;;;;13.83;8.47;;;;;;;;;;4826635;29;20213;-80
2021/01/11 02:34:38;;;;;;;13.70;8.47;;;;;;;;;;4797353;29;20211;-80
2021/01/11 02:37:06;;;;;;;13.03;8.37;;;;;;;;;;4829897;29;20211;-81
2021/01/11 02:39:34;;;;;;;13.83;8.80;;;;;;;;;;4793151;29;20818;-80
2021/01/11 02:42:02;;;;;;;13.07;8.20;;;;;;;;;;4799013;29;20238;-80
2021/01/11 02:44:30;;;;;;;13.33;8.30;;;;;;;;;;4805043;29;20242;-79
2021/01/11 02:46:58;;;;;;;12.93;8.73;;;;;;;;;;4803614;29;20592;-79
2021/01/11 02:49:28;;;;;;;15.27;8.80;;;;;;;;;;4777153;29;20241;-79
2021/01/11 02:52:02;;;;;;;13.27;8.17;;;;;;;;;;4806069;29;20203;-80
2021/01/11 02:54:34;;;;;;;14.20;8.30;;;;;;;;;;4790423;29;20219;-80
2021/01/11 02:57:08;;;;;;;12.37;7.83;;;;;;;;;;4792353;29;20238;-79
2021/01/11 02:59:39;;;;;;;13.93;8.93;;;;;;;;;;4788133;29;20218;-79
2021/01/11 03:02:09;;;;;;;11.93;8.37;;;;;;;;;;4790812;29;20224;-79
2021/01/11 03:04:39;;;;;;;13.53;8.07;;;;;;;;;;4791860;29;20612;-80
2021/01/11 03:07:07;;;;;;;13.73;8.10;;;;;;;;;;4792379;29;20215;-80
2021/01/11 03:09:39;;;;;;;14.70;8.47;;;;;;;;;;4794928;29;20222;-80
2021/01/11 03:12:08;;;;;;;15.50;9.70;;;;;;;;;;4790839;29;20231;-80
2021/01/11 03:14:36;;;;;;;15.27;8.93;;;;;;;;;;4802623;29;20220;-79
2021/01/11 03:17:05;;;;;;;13.13;8.53;;;;;;;;;;4791851;29;20220;-79
2021/01/11 03:19:33;;;;;;;13.50;8.03;;;;;;;;;;4804232;29;20219;-80
2021/01/11 03:22:02;;;;;;;11.67;8.27;;;;;;;;;;4792527;29;20260;-79
2021/01/11 03:24:30;;;;;;;12.33;8.07;;;;;;;;;;4787363;29;20227;-79
2021/01/11 03:26:59;;;;;;;13.57;8.00;;;;;;;;;;4801549;29;20219;-79
2021/01/11 03:29:28;;;;;;;14.40;8.87;;;;;;;;;;4810588;29;20199;-80
2021/01/11 03:31:56;;;;;;;12.80;8.27;;;;;;;;;;4789594;29;20210;-79
2021/01/11 03:34:24;;;;;;;14.13;8.03;;;;;;;;;;4787935;29;20235;-80
2021/01/11 03:36:52;;;;;;;13.73;8.47;;;;;;;;;;4791003;29;20215;-80
2021/01/11 03:39:21;;;;;;;15.27;9.13;;;;;;;;;;4791130;29;20213;-80
2021/01/11 03:41:49;;;;;;;12.67;8.23;;;;;;;;;;4783440;29;20749;-79
2021/01/11 03:44:17;;;;;;;13.03;8.23;;;;;;;;;;4781436;29;20235;-79
2021/01/11 03:46:45;;;;;;;13.40;8.17;;;;;;;;;;4787868;29;20636;-79
2021/01/11 03:49:13;;;;;;;13.10;7.73;;;;;;;;;;4800210;29;20212;-79
2021/01/11 03:51:41;;;;;;;13.77;9.03;;;;;;;;;;4801578;29;20700;-78
2021/01/11 03:54:09;;;;;;;14.50;8.43;;;;;;;;;;4806256;29;20234;-79
2021/01/11 03:56:37;;;;;;;14.07;8.33;;;;;;;;;;4799471;29;20219;-79
2021/01/11 03:59:05;;;;;;;14.13;8.27;;;;;;;;;;4802018;29;20495;-80
2021/01/11 04:01:34;;;;;;;13.30;8.17;;;;;;;;;;4800938;29;20273;-79
2021/01/11 04:04:02;;;;;;;13.40;8.13;;;;;;;;;;4787238;29;20234;-79
2021/01/11 04:06:30;;;;;;;14.57;8.40;;;;;;;;;;4787591;29;20223;-78
2021/01/11 04:08:59;;;;;;;13.00;8.80;;;;;;;;;;4791951;29;20226;-80
2021/01/11 04:11:26;;;;;;;13.97;8.50;;;;;;;;;;4801960;29;20672;-79
2021/01/11 04:13:55;;;;;;;13.40;8.60;;;;;;;;;;4789674;29;20246;-79
2021/01/11 04:16:24;;;;;;;13.23;8.17;;;;;;;;;;4786960;29;20219;-79
2021/01/11 04:18:52;;;;;;;16.10;9.10;;;;;;;;;;4803481;29;20672;-79
2021/01/11 04:21:20;;;;;;;14.43;8.20;;;;;;;;;;4790353;29;20238;-79
2021/01/11 04:23:48;;;;;;;15.23;9.33;;;;;;;;;;4803113;29;20571;-79
2021/01/11 04:26:16;;;;;;;14.77;9.17;;;;;;;;;;4803543;29;20214;-79
2021/01/11 04:28:44;;;;;;;15.70;9.63;;;;;;;;;;4789234;29;20221;-79
2021/01/11 04:31:13;;;;;;;13.67;9.83;;;;;;;;;;4788133;29;20226;-80
2021/01/11 04:33:41;;;;;;;14.60;9.63;;;;;;;;;;4787630;29;20229;-81
2021/01/11 04:36:08;;;;;;;13.77;9.20;;;;;;;;;;4806548;29;20219;-79
2021/01/11 04:38:36;;;;;;;14.27;9.53;;;;;;;;;;4776615;29;20218;-79
2021/01/11 04:41:04;;;;;;;14.07;9.53;;;;;;;;;;4787025;29;20238;-79
2021/01/11 04:43:36;;;;;;;15.30;9.53;;;;;;;;;;4805087;29;20233;-79
2021/01/11 04:46:03;;;;;;;15.47;9.43;;;;;;;;;;4814159;29;20662;-80
2021/01/11 04:48:32;;;;;;;14.07;9.00;;;;;;;;;;4809577;29;20205;-79
2021/01/11 04:51:01;;;;;;;16.87;9.97;;;;;;;;;;4823739;29;20248;-79
2021/01/11 04:53:29;;;;;;;15.07;8.50;;;;;;;;;;4801129;29;20241;-80
2021/01/11 04:55:59;;;;;;;15.33;9.17;;;;;;;;;;4786594;29;20210;-79
2021/01/11 04:58:30;;;;;;;14.73;9.53;;;;;;;;;;4788308;29;20235;-79
2021/01/11 05:01:00;;;;;;;15.30;9.60;;;;;;;;;;4786608;29;20889;-79
2021/01/11 05:03:28;;;;;;;14.97;9.30;;;;;;;;;;4786970;29;20837;-79
2021/01/11 05:05:59;;;;;;;17.30;9.57;;;;;;;;;;4785803;29;22795;-79
2021/01/11 05:08:27;;;;;;;15.23;10.03;;;;;;;;;;4788662;29;20215;-79
2021/01/11 05:10:55;;;;;;;15.40;10.10;;;;;;;;;;4787917;29;20216;-79
2021/01/11 05:13:23;;;;;;;15.50;9.73;;;;;;;;;;4790363;29;20239;-80
2021/01/11 05:15:51;;;;;;;17.60;10.50;;;;;;;;;;4800955;29;20225;-80
2021/01/11 05:18:20;;;;;;;17.13;9.70;;;;;;;;;;4805727;29;20232;-80
2021/01/11 05:20:48;;;;;;;15.73;9.50;;;;;;;;;;4786377;29;20227;-79
2021/01/11 05:23:17;;;;;;;17.03;9.77;;;;;;;;;;4798834;29;20723;-79
2021/01/11 05:25:45;;;;;;;16.73;9.60;;;;;;;;;;4786335;29;20233;-79
2021/01/11 05:28:14;;;;;;;13.83;9.00;;;;;;;;;;4786364;29;20214;-79
2021/01/11 05:30:43;;;;;;;16.50;10.57;;;;;;;;;;4788877;29;20226;-80
2021/01/11 05:33:17;;;;;;;18.97;9.43;;;;;;;;;;4788272;29;20838;-80
2021/01/11 05:35:45;;;;;;;15.77;9.70;;;;;;;;;;4785254;29;20223;-79
2021/01/11 05:38:18;;;;;;;13.73;9.40;;;;;;;;;;4810628;29;20222;-80
2021/01/11 05:40:47;;;;;;;17.63;9.27;;;;;;;;;;4792693;29;20774;-80
2021/01/11 05:43:20;;;;;;;16.67;10.00;;;;;;;;;;4809847;29;20238;-79
2021/01/11 05:45:48;;;;;;;14.50;9.03;;;;;;;;;;4806182;29;20221;-79
2021/01/11 05:48:15;;;;;;;16.00;8.90;;;;;;;;;;4800186;29;20214;-79
2021/01/11 05:50:45;;;;;;;14.97;9.57;;;;;;;;;;4788174;29;20221;-79
2021/01/11 05:53:18;;;;;;;15.37;9.37;;;;;;;;;;4786296;29;20237;-79
2021/01/11 05:55:46;;;;;;;20.80;10.57;;;;;;;;;;4785206;29;20224;-79
2021/01/11 05:58:15;;;;;;;14.33;10.13;;;;;;;;;;4799014;29;20219;-79
2021/01/11 06:00:43;;;;;;;16.50;9.80;;;;;;;;;;4801342;29;20210;-79
2021/01/11 06:03:11;;;;;;;16.90;9.90;;;;;;;;;;4798919;29;20274;-79
2021/01/11 06:05:40;;;;;;;16.13;9.13;;;;;;;;;;4788648;29;20288;-78
2021/01/11 06:08:08;;;;;;;18.37;10.17;;;;;;;;;;4783835;29;20624;-80
2021/01/11 06:10:37;;;;;;;16.70;10.00;;;;;;;;;;4787473;29;20217;-80
2021/01/11 06:13:09;;;;;;;15.90;9.63;;;;;;;;;;4782306;29;20253;-79
2021/01/11 06:15:38;;;;;;;15.40;10.30;;;;;;;;;;4786107;29;20213;-79
2021/01/11 06:18:08;;;;;;;15.90;10.17;;;;;;;;;;4786403;29;20230;-79
2021/01/11 06:20:36;;;;;;;13.93;9.00;;;;;;;;;;4795892;29;20714;-78
2021/01/11 06:23:05;;;;;;;15.53;9.87;;;;;;;;;;4777995;29;20518;-79
2021/01/11 06:25:37;;;;;;;17.63;10.00;;;;;;;;;;4781533;29;21285;-78
2021/01/11 06:28:07;;;;;;;15.47;10.13;;;;;;;;;;4778835;29;20216;-79
2021/01/11 06:30:37;;;;;;;16.23;9.57;;;;;;;;;;4782907;29;20221;-79
2021/01/11 06:33:06;;;;;;;16.77;9.70;;;;;;;;;;4777159;29;20236;-79
2021/01/11 06:35:34;;;;;;;16.37;10.73;;;;;;;;;;4772629;29;20216;-79
2021/01/11 06:38:24;;;;;;;18.70;9.33;;;;;;;;;;4786688;29;20689;-79
2021/01/11 06:40:54;;;;;;;13.63;9.30;;;;;;;;;;4791649;29;20228;-80
2021/01/11 06:43:23;;;;;;;15.67;9.37;;;;;;;;;;4802566;29;20248;-79
2021/01/11 06:45:51;;;;;;;15.83;9.57;;;;;;;;;;4785794;29;20224;-79
2021/01/11 06:48:20;;;;;;;16.00;10.37;;;;;;;;;;4785968;29;20216;-78
2021/01/11 06:50:49;;;;;;;16.50;9.97;;;;;;;;;;4790798;29;20217;-79
2021/01/11 06:53:27;;;;;;;13.10;9.20;;;;;;;;;;4797878;29;20232;-79
2021/01/11 06:56:06;;;;;;;15.40;9.00;;;;;;;;;;4798188;29;20209;-79
2021/01/11 06:58:34;;;;;;;16.73;9.73;;;;;;;;;;4795295;29;20214;-79
2021/01/11 07:01:03;;;;;;;16.10;9.57;;;;;;;;;;4798435;29;20336;-81
2021/01/11 07:03:44;;;;;;;17.37;9.63;;;;;;;;;;4805384;29;20249;-79
2021/01/11 07:06:36;;;;;;;14.43;9.70;;;;;;;;;;4786973;29;20417;-79
2021/01/11 07:09:08;;;;;;;14.17;9.10;;;;;;;;;;4801588;29;20590;-80
2021/01/11 07:11:37;;;;;;;15.93;10.10;;;;;;;;;;4802010;29;20213;-79
2021/01/11 07:14:06;;;;;;;17.77;10.27;;;;;;;;;;4800750;29;20229;-79
2021/01/11 07:16:41;;;;;;;15.07;9.90;;;;;;;;;;4781539;29;20220;-78
2021/01/11 07:19:09;;;;;;;15.50;9.67;;;;;;;;;;4802082;29;20219;-79
2021/01/11 07:21:37;;;;;;;14.13;9.10;;;;;;;;;;4788705;29;20591;-79
2021/01/11 07:24:06;;;;;;;17.50;10.73;;;;;;;;;;4787485;29;20247;-78
2021/01/11 07:26:34;;;;;;;15.60;9.77;;;;;;;;;;4787949;29;20227;-79
2021/01/11 07:29:05;;;;;;;16.60;9.63;;;;;;;;;;4783285;29;20235;-80
2021/01/11 07:31:33;;;;;;;14.30;9.07;;;;;;;;;;4802130;29;22943;-79
2021/01/11 07:34:06;;;;;;;16.13;10.17;;;;;;;;;;4802452;29;20582;-80
2021/01/11 07:36:37;;;;;;;15.67;8.97;;;;;;;;;;4804761;29;20221;-80
2021/01/11 07:39:13;;;;;;;13.40;9.80;;;;;;;;;;4787016;29;20214;-79
2021/01/11 07:41:42;;;;;;;16.03;10.17;;;;;;;;;;4793013;29;20266;-79
2021/01/11 07:44:11;;;;;;;16.17;10.37;;;;;;;;;;4788393;29;20229;-79
2021/01/11 07:46:39;;;;;;;15.43;9.73;;;;;;;;;;4795205;29;21504;-79
2021/01/11 07:49:15;;;;;;;17.53;10.37;;;;;;;;;;4784149;29;20220;-79
2021/01/11 07:51:45;;;;;;;14.87;9.67;;;;;;;;;;4784650;29;20244;-80
2021/01/11 07:54:16;;;;;;;15.40;9.73;;;;;;;;;;4788459;29;20671;-80
2021/01/11 07:56:45;;;;;;;14.97;9.87;;;;;;;;;;4787640;29;20205;-79
2021/01/11 07:59:15;;;;;;;18.80;10.40;;;;;;;;;;4790611;29;20218;-79
2021/01/11 08:01:44;;;;;;;17.80;10.83;;;;;;;;;;4791307;29;20222;-80
2021/01/11 08:04:13;;;;;;;13.33;9.13;;;;;;;;;;4801093;29;20248;-79
2021/01/11 08:06:52;;;;;;;17.70;10.33;;;;;;;;;;4790042;29;20624;-80
2021/01/11 08:09:24;;;;;;;15.67;9.23;;;;;;;;;;4836076;29;20208;-80
2021/01/11 08:12:04;;;;;;;16.50;9.40;;;;;;;;;;4823675;29;20215;-80
2021/01/11 08:14:33;;;;;;;13.53;8.87;;;;;;;;;;4817669;29;20222;-79
2021/01/11 08:17:03;;;;;;;14.67;9.43;;;;;;;;;;4800193;29;20223;-80
2021/01/11 08:19:32;;;;;;;15.00;9.80;;;;;;;;;;4817724;29;20204;-79
2021/01/11 08:22:01;;;;;;;16.20;10.10;;;;;;;;;;4808270;29;20220;-79
2021/01/11 08:24:29;;;;;;;16.70;10.53;;;;;;;;;;4804615;29;20213;-79
2021/01/11 08:27:03;;;;;;;15.57;10.13;;;;;;;;;;4802777;29;20208;-79
2021/01/11 08:29:37;;;;;;;15.23;9.47;;;;;;;;;;4809128;29;21296;-79
2021/01/11 08:32:07;;;;;;;17.37;9.87;;;;;;;;;;4790239;29;20227;-79
2021/01/11 08:34:35;;;;;;;15.17;10.20;;;;;;;;;;4789808;29;22941;-79
2021/01/11 08:37:31;;;;;;;14.93;9.83;;;;;;;;;;4801355;29;20224;-78
2021/01/11 08:40:00;;;;;;;16.60;10.63;;;;;;;;;;4780771;29;20204;-80
2021/01/11 08:42:29;;;;;;;18.10;10.93;;;;;;;;;;4795073;29;20240;-79
2021/01/11 08:45:27;;;;;;;15.77;10.00;;;;;;;;;;4788584;29;20678;-79
2021/01/11 08:48:00;;;;;;;15.33;10.13;;;;;;;;;;4785189;29;20575;-79
2021/01/11 08:50:29;;;;;;;16.73;10.43;;;;;;;;;;4786226;29;20910;-79
2021/01/11 08:52:57;;;;;;;19.07;10.23;;;;;;;;;;4797198;29;20231;-78
2021/01/11 08:55:25;;;;;;;17.50;10.47;;;;;;;;;;4787314;29;20213;-79
2021/01/11 08:57:58;;;;;;;18.00;9.73;;;;;;;;;;4782555;29;20531;-78
2021/01/11 09:00:27;;;;;;;18.00;10.50;;;;;;;;;;4789233;29;20231;-78
2021/01/11 09:02:55;;;;;;;16.00;10.60;;;;;;;;;;4789866;29;20691;-79
2021/01/11 09:05:24;;;;;;;18.53;10.57;;;;;;;;;;4782667;29;20223;-79
2021/01/11 09:07:51;;;;;;;16.83;9.73;;;;;;;;;;4802160;29;20219;-78
2021/01/11 09:10:25;;;;;;;16.47;9.83;;;;;;;;;;4810908;29;20198;-78
2021/01/11 09:12:53;;;;;;;15.83;9.87;;;;;;;;;;4810918;29;20235;-79
2021/01/11 09:15:28;;;;;;;15.43;10.13;;;;;;;;;;4808036;29;20473;-79
2021/01/11 09:18:01;;;;;;;17.17;10.17;;;;;;;;;;4804843;29;20218;-79
2021/01/11 09:20:29;;;;;;;17.33;10.47;;;;;;;;;;4805641;29;20231;-79
2021/01/11 09:22:57;;;;;;;15.33;10.00;;;;;;;;;;4777276;29;20252;-79
2021/01/11 09:25:27;;;;;;;17.43;11.40;;;;;;;;;;4790030;29;20247;-79
2021/01/11 09:27:56;;;;;;;17.17;10.60;;;;;;;;;;4785224;29;20669;-79
2021/01/11 09:30:24;;;;;;;15.47;10.00;;;;;;;;;;4789547;29;20225;-79
2021/01/11 09:32:52;;;;;;;16.67;10.53;;;;;;;;;;4804021;29;20306;-79
2021/01/11 09:35:20;;;;;;;15.67;9.90;;;;;;;;;;4801668;29;20734;-79
2021/01/11 09:37:48;;;;;;;18.17;10.17;;;;;;;;;;4792281;29;20214;-78
2021/01/11 09:40:17;;;;;;;15.50;9.60;;;;;;;;;;4797339;29;20226;-79
2021/01/11 09:42:46;;;;;;;16.67;10.63;;;;;;;;;;4785753;29;20249;-79
2021/01/11 09:45:14;;;;;;;16.57;10.50;;;;;;;;;;4794355;29;20223;-79
2021/01/11 09:47:44;;;;;;;16.80;10.33;;;;;;;;;;4780493;29;20210;-79
2021/01/11 09:50:14;;;;;;;17.47;10.37;;;;;;;;;;4796512;29;20209;-78
2021/01/11 09:52:42;;;;;;;15.13;9.83;;;;;;;;;;4802174;29;20682;-79
2021/01/11 09:55:11;;;;;;;17.57;10.63;;;;;;;;;;4787582;29;20205;-79
2021/01/11 09:57:39;;;;;;;16.23;10.60;;;;;;;;;;4788920;29;20217;-79
2021/01/11 10:00:09;;;;;;;15.20;9.37;;;;;;;;;;4800517;29;20209;-79
2021/01/11 10:02:39;;;;;;;16.40;10.60;;;;;;;;;;4793508;29;20721;-78
2021/01/11 10:05:08;;;;;;;15.40;9.63;;;;;;;;;;4792240;29;20564;-78
2021/01/11 10:07:37;;;;;;;15.90;9.67;;;;;;;;;;4789555;29;20773;-79
2021/01/11 10:10:06;;;;;;;16.67;11.13;;;;;;;;;;4790705;29;20218;-79
2021/01/11 10:12:34;;;;;;;14.77;9.67;;;;;;;;;;4818280;29;20245;-79
2021/01/11 10:15:01;;;;;;;13.40;8.97;;;;;;;;;;4786871;29;20226;-79
2021/01/11 10:17:29;;;;;;;18.50;10.40;;;;;;;;;;4812785;29;20217;-79
2021/01/11 10:19:57;;;;;;;17.17;10.70;;;;;;;;;;4788226;29;20520;-79
2021/01/11 10:22:26;;;;;;;18.43;11.17;;;;;;;;;;4790479;29;20242;-79
2021/01/11 10:24:56;;;;;;;15.60;9.63;;;;;;;;;;4789504;29;20632;-79
2021/01/11 10:27:23;;;;;;;17.77;10.20;;;;;;;;;;4800040;29;20218;-79
2021/01/11 10:29:52;;;;;;;16.83;10.30;;;;;;;;;;4800547;29;20586;-79
2021/01/11 10:32:19;;;;;;;16.73;10.27;;;;;;;;;;4786304;29;20221;-80
2021/01/11 10:34:48;;;;;;;21.73;11.83;;;;;;;;;;4788088;29;20234;-79
2021/01/11 10:37:15;;;;;;;18.43;10.40;;;;;;;;;;4788004;29;20227;-79
2021/01/11 10:39:44;;;;;;;13.83;8.90;;;;;;;;;;4786506;29;20559;-79
2021/01/11 10:42:12;;;;;;;15.97;10.27;;;;;;;;;;4799957;29;20210;-79
2021/01/11 10:44:40;;;;;;;16.13;10.30;;;;;;;;;;4786355;29;20905;-79
2021/01/11 10:47:08;;;;;;;15.10;10.00;;;;;;;;;;4784887;29;20215;-79
2021/01/11 10:49:37;;;;;;;16.37;10.40;;;;;;;;;;4796701;29;20568;-80
2021/01/11 10:52:06;;;;;;;14.90;9.83;;;;;;;;;;4786821;29;20683;-79
2021/01/11 10:54:34;;;;;;;14.90;10.20;;;;;;;;;;4785336;29;20215;-79
2021/01/11 10:57:02;;;;;;;15.63;9.73;;;;;;;;;;4780408;29;20226;-80
2021/01/11 10:59:31;;;;;;;16.33;10.43;;;;;;;;;;4790917;29;20223;-79
2021/01/11 11:02:00;;;;;;;15.20;10.07;;;;;;;;;;4784789;29;20232;-80
2021/01/11 11:04:29;;;;;;;16.70;9.40;;;;;;;;;;4805936;29;20612;-80
2021/01/11 11:06:59;;;;;;;18.07;9.47;;;;;;;;;;4802975;29;20227;-80
2021/01/11 11:09:27;;;;;;;16.07;9.77;;;;;;;;;;4792074;29;20216;-80
2021/01/11 11:11:56;;;;;;;16.17;10.00;;;;;;;;;;4807715;29;20242;-80
2021/01/11 11:14:24;;;;;;;15.47;9.50;;;;;;;;;;4821052;29;20231;-79
2021/01/11 11:16:54;;;;;;;15.70;10.30;;;;;;;;;;4813820;29;20610;-79
2021/01/11 11:19:23;;;;;;;16.00;9.23;;;;;;;;;;4813458;29;20203;-80
2021/01/11 11:21:51;;;;;;;15.40;9.63;;;;;;;;;;4823861;29;20202;-79
2021/01/11 11:24:19;;;;;;;14.93;9.50;;;;;;;;;;4818430;29;20220;-79
2021/01/11 11:26:48;;;;;;;16.03;9.40;;;;;;;;;;4817642;29;20232;-79
2021/01/11 11:29:16;;;;;;;16.00;9.23;;;;;;;;;;4811674;29;20227;-80
2021/01/11 11:31:44;;;;;;;16.20;10.37;;;;;;;;;;4799805;29;20223;-80
2021/01/11 11:34:12;;;;;;;14.93;8.53;;;;;;;;;;4814343;29;20236;-80
2021/01/11 11:36:41;;;;;;;15.10;9.47;;;;;;;;;;4779457;29;20220;-81
2021/01/11 11:39:12;;;;;;;14.30;9.50;;;;;;;;;;4803803;29;20432;-80
2021/01/11 11:41:41;;;;;;;17.13;9.30;;;;;;;;;;4814974;29;20208;-79
2021/01/11 11:44:10;;;;;;;15.03;9.47;;;;;;;;;;4800265;29;20243;-80
2021/01/11 11:46:38;;;;;;;15.67;9.57;;;;;;;;;;4810902;29;20227;-80
2021/01/11 11:49:06;;;;;;;13.90;9.27;;;;;;;;;;4797289;29;20212;-81
2021/01/11 11:51:39;;;;;;;14.03;9.13;;;;;;;;;;4794203;29;20542;-80
2021/01/11 11:54:07;;;;;;;16.17;9.53;;;;;;;;;;4797957;29;20249;-80
2021/01/11 11:56:38;;;;;;;13.33;9.33;;;;;;;;;;4799163;29;20209;-81
2021/01/11 11:59:07;;;;;;;18.47;9.47;;;;;;;;;;4798499;29;20220;-80
2021/01/11 12:01:36;;;;;;;15.90;9.50;;;;;;;;;;4802315;29;20216;-80
2021/01/11 12:04:04;;;;;;;16.80;9.97;;;;;;;;;;4819452;29;20236;-80
2021/01/11 12:06:44;;;;;;;19.73;10.40;;;;;;;;;;4793205;29;20247;-79
2021/01/11 12:09:12;;;;;;;15.93;9.37;;;;;;;;;;4794266;29;20213;-81
2021/01/11 12:11:44;;;;;;;16.97;9.53;;;;;;;;;;4800674;29;20231;-80
2021/01/11 12:14:12;;;;;;;14.13;9.37;;;;;;;;;;4792875;29;20239;-80
2021/01/11 12:16:40;;;;;;;14.07;8.90;;;;;;;;;;4814144;29;20232;-81
2021/01/11 12:19:08;;;;;;;15.63;9.07;;;;;;;;;;4802633;29;20221;-80
2021/01/11 12:21:36;;;;;;;16.20;9.37;;;;;;;;;;4798674;29;20208;-81
2021/01/11 12:24:09;;;;;;;15.10;9.10;;;;;;;;;;4798596;29;20263;-81
2021/01/11 12:26:42;;;;;;;14.87;9.07;;;;;;;;;;4809386;29;20212;-81
2021/01/11 12:29:10;;;;;;;13.63;9.23;;;;;;;;;;4807005;29;20220;-81
2021/01/11 12:31:39;;;;;;;13.27;9.47;;;;;;;;;;4811473;29;20220;-80
2021/01/11 12:34:07;;;;;;;12.90;9.40;;;;;;;;;;4795316;29;20267;-81
2021/01/11 12:36:36;;;;;;;14.53;10.43;;;;;;;;;;4786184;29;20421;-80
2021/01/11 12:39:06;;;;;;;15.20;10.00;;;;;;;;;;4792635;29;20212;-82
2021/01/11 12:41:34;;;;;;;14.37;9.33;;;;;;;;;;4812343;29;20703;-81
2021/01/11 12:44:05;;;;;;;15.50;10.37;;;;;;;;;;4808395;29;20584;-82
2021/01/11 12:46:32;;;;;;;13.10;9.03;;;;;;;;;;4803659;29;20224;-84
2021/01/11 12:49:00;;;;;;;14.87;9.73;;;;;;;;;;4795123;29;20224;-84
2021/01/11 12:51:28;;;;;;;12.30;8.97;;;;;;;;;;4802568;29;20215;-81
2021/01/11 12:53:55;;;;;;;13.60;10.03;;;;;;;;;;4785340;29;20243;-84
2021/01/11 12:56:26;;;;;;;11.33;8.57;;;;;;;;;;4789379;29;20213;-85
2021/01/11 12:58:55;;;;;;;13.80;9.53;;;;;;;;;;4798705;29;20216;-81
2021/01/11 13:01:23;;;;;;;14.13;10.00;;;;;;;;;;4801571;29;20227;-82
2021/01/11 13:03:52;;;;;;;13.30;9.97;;;;;;;;;;4793082;29;20240;-81
2021/01/11 13:06:21;;;;;;;12.23;9.30;;;;;;;;;;4791752;29;20223;-81
2021/01/11 13:08:49;;;;;;;14.30;9.77;;;;;;;;;;4799254;29;20231;-81
2021/01/11 13:11:17;;;;;;;14.93;9.90;;;;;;;;;;4800367;29;20212;-81
2021/01/11 13:13:47;;;;;;;14.20;9.10;;;;;;;;;;4800212;29;20224;-80
2021/01/11 13:16:22;;;;;;;12.93;8.73;;;;;;;;;;4799651;29;20208;-80
2021/01/11 13:18:51;;;;;;;13.97;9.37;;;;;;;;;;4802093;29;20449;-80
2021/01/11 13:21:18;;;;;;;17.33;9.43;;;;;;;;;;4795709;29;20224;-81
2021/01/11 13:23:46;;;;;;;14.20;9.37;;;;;;;;;;4814853;29;20244;-80
2021/01/11 13:26:21;;;;;;;14.87;9.30;;;;;;;;;;4813794;29;20248;-82
2021/01/11 13:28:49;;;;;;;13.40;9.10;;;;;;;;;;4788598;29;20675;-81
2021/01/11 13:31:17;;;;;;;16.57;9.93;;;;;;;;;;4815570;29;20227;-81
2021/01/11 13:33:45;;;;;;;13.90;9.93;;;;;;;;;;4802095;29;20593;-82
2021/01/11 13:36:18;;;;;;;15.10;9.93;;;;;;;;;;4805156;29;20568;-81
2021/01/11 13:38:46;;;;;;;12.20;9.00;;;;;;;;;;4818271;29;20208;-82
2021/01/11 13:41:13;;;;;;;13.40;9.03;;;;;;;;;;4809373;29;20569;-84
2021/01/11 13:43:41;;;;;;;14.10;9.53;;;;;;;;;;4814856;29;20593;-82
2021/01/11 13:46:09;;;;;;;15.17;9.87;;;;;;;;;;4821786;29;20236;-82
2021/01/11 13:48:37;;;;;;;18.00;9.00;;;;;;;;;;4793185;29;20347;-83
2021/01/11 13:51:05;;;;;;;14.30;9.43;;;;;;;;;;4791132;29;20209;-83
2021/01/11 13:53:32;;;;;;;14.77;10.07;;;;;;;;;;4792289;29;20244;-82
2021/01/11 13:56:00;;;;;;;14.07;9.93;;;;;;;;;;4800106;29;20587;-82
2021/01/11 13:58:28;;;;;;;14.97;10.27;;;;;;;;;;4808489;29;20216;-82
2021/01/11 14:00:56;;;;;;;13.87;9.97;;;;;;;;;;4795400;29;20220;-80
2021/01/11 14:03:24;;;;;;;13.20;9.20;;;;;;;;;;4804595;29;20608;-82
2021/01/11 14:05:53;;;;;;;15.30;9.37;;;;;;;;;;4820027;29;20236;-78
2021/01/11 14:08:20;;;;;;;15.37;9.43;;;;;;;;;;4802451;29;20208;-79
2021/01/11 14:10:48;;;;;;;14.43;9.27;;;;;;;;;;4808449;29;20236;-80
2021/01/11 14:13:16;;;;;;;15.53;9.57;;;;;;;;;;4813064;29;20224;-80
2021/01/11 14:15:44;;;;;;;14.97;9.03;;;;;;;;;;4793097;29;20216;-80
2021/01/11 14:18:12;;;;;;;15.93;9.20;;;;;;;;;;4809278;29;20913;-80
2021/01/11 14:20:41;;;;;;;17.23;8.80;;;;;;;;;;4808309;29;20256;-80
2021/01/11 14:23:09;;;;;;;15.27;9.07;;;;;;;;;;4796953;29;20244;-80
2021/01/11 14:25:37;;;;;;;16.33;9.77;;;;;;;;;;4794903;29;20243;-80
2021/01/11 14:28:05;;;;;;;16.37;9.77;;;;;;;;;;4808718;29;20600;-80
2021/01/11 14:30:33;;;;;;;16.23;10.17;;;;;;;;;;4800004;29;20219;-81
2021/01/11 14:33:02;;;;;;;20.87;9.17;;;;;;;;;;4798451;29;20788;-79
2021/01/11 14:35:30;;;;;;;18.40;10.20;;;;;;;;;;4803183;29;20204;-79
2021/01/11 14:37:59;;;;;;;16.00;10.00;;;;;;;;;;4797273;29;20212;-78
2021/01/11 14:40:27;;;;;;;17.03;9.80;;;;;;;;;;4808965;29;20192;-80